Time;durP1;ratioP1;P1;durP2;ratioP2;P2;SDS_P1;SDS_P2;PMS_P1;PMS_P2;Temp;Humidity;BMP_temperature;BMP_pressure;BME280_temperature;BME280_humidity;BME280_pressure;Samples;Min_cycle;Max_cycle;Signal;HPM_P1;HPM_P2
2022/10/08 00:00:51;;;;;;;4.28;1.50;;;15.90;94.30;;;;;;5054947;28;20032;-68
2022/10/08 00:03:18;;;;;;;0.80;0.80;;;15.90;94.20;;;;;;5055598;28;20391;-68
2022/10/08 00:05:54;;;;;;;7.68;1.67;;;15.90;94.20;;;;;;5054778;28;20040;-68
2022/10/08 00:08:20;;;;;;;6.63;2.15;;;16.00;94.20;;;;;;5055431;28;20511;-68
2022/10/08 00:10:55;;;;;;;2.40;0.98;;;16.00;94.20;;;;;;5055182;28;20029;-68
2022/10/08 00:13:22;;;;;;;7.05;1.63;;;16.00;94.20;;;;;;5055033;28;20041;-68
2022/10/08 00:15:48;;;;;;;1.95;1.45;;;16.00;94.20;;;;;;5055349;28;20025;-68
2022/10/08 00:18:13;;;;;;;3.28;1.52;;;16.00;94.30;;;;;;5055088;28;20391;-68
2022/10/08 00:20:39;;;;;;;2.92;1.00;;;16.00;94.30;;;;;;5054361;28;20036;-68
2022/10/08 00:23:05;;;;;;;1.27;1.17;;;16.00;94.20;;;;;;5055037;28;20033;-68
2022/10/08 00:25:30;;;;;;;3.92;1.58;;;16.00;94.20;;;;;;5055257;28;20025;-68
2022/10/08 00:27:56;;;;;;;3.05;1.38;;;16.00;94.20;;;;;;5054262;28;20116;-68
2022/10/08 00:30:22;;;;;;;7.93;2.17;;;16.00;94.10;;;;;;5053796;28;20128;-68
2022/10/08 00:32:47;;;;;;;2.80;1.35;;;16.00;94.20;;;;;;5055247;28;20033;-68
2022/10/08 00:35:13;;;;;;;1.85;1.10;;;16.00;94.10;;;;;;5054063;28;20087;-68
2022/10/08 00:37:38;;;;;;;4.22;1.38;;;16.00;94.10;;;;;;5054906;28;20050;-68
2022/10/08 00:40:04;;;;;;;4.55;1.52;;;16.00;94.10;;;;;;5054840;28;20025;-68
2022/10/08 00:42:30;;;;;;;2.75;1.42;;;16.00;94.10;;;;;;5054027;28;20036;-68
2022/10/08 00:44:58;;;;;;;4.82;1.70;;;16.00;94.10;;;;;;5054661;28;20033;-68
2022/10/08 00:47:34;;;;;;;6.05;1.67;;;16.00;94.10;;;;;;5054521;28;20047;-68
2022/10/08 00:50:14;;;;;;;7.97;2.72;;;16.00;94.10;;;;;;5054052;28;20032;-68
2022/10/08 00:52:44;;;;;;;6.47;2.55;;;16.00;94.10;;;;;;5054682;28;20112;-68
2022/10/08 00:55:12;;;;;;;11.20;2.50;;;16.00;94.00;;;;;;5053941;28;20025;-68
2022/10/08 00:57:39;;;;;;;8.38;2.45;;;16.10;94.00;;;;;;5054407;28;20049;-68
2022/10/08 01:00:08;;;;;;;7.60;1.60;;;16.10;94.00;;;;;;5055149;28;20052;-68
2022/10/08 01:02:34;;;;;;;2.30;1.27;;;16.10;93.70;;;;;;5053521;28;20048;-68
2022/10/08 01:05:01;;;;;;;7.97;1.63;;;16.10;93.60;;;;;;5054497;28;20028;-68
2022/10/08 01:07:31;;;;;;;2.55;1.00;;;16.10;93.60;;;;;;5054292;28;20049;-68
2022/10/08 01:10:09;;;;;;;3.03;1.95;;;16.10;93.60;;;;;;5053623;28;20068;-68
2022/10/08 01:12:59;;;;;;;7.20;2.10;;;16.10;93.70;;;;;;5054268;28;20025;-68
2022/10/08 01:15:50;;;;;;;2.05;0.82;;;16.10;93.60;;;;;;5054241;28;20029;-68
2022/10/08 01:18:30;;;;;;;6.47;1.73;;;16.20;93.50;;;;;;5053244;28;20043;-68
2022/10/08 01:21:17;;;;;;;2.00;1.05;;;16.10;93.60;;;;;;5054162;28;20084;-68
2022/10/08 01:23:45;;;;;;;1.92;0.90;;;16.00;93.60;;;;;;5053306;28;20044;-68
2022/10/08 01:26:34;;;;;;;4.80;1.70;;;16.00;93.60;;;;;;5054169;28;20239;-68
2022/10/08 01:29:19;;;;;;;8.52;1.65;;;16.00;93.80;;;;;;5053977;28;20051;-68
2022/10/08 01:31:56;;;;;;;3.25;0.90;;;16.00;93.90;;;;;;5053043;28;20063;-68
2022/10/08 01:34:46;;;;;;;2.33;0.80;;;15.90;93.80;;;;;;5053764;28;20532;-68
2022/10/08 01:37:23;;;;;;;4.85;1.17;;;16.00;93.90;;;;;;5050080;28;20037;-68
2022/10/08 01:39:53;;;;;;;2.45;1.08;;;15.90;93.90;;;;;;5053931;28;20053;-68
2022/10/08 01:42:24;;;;;;;6.32;1.35;;;15.90;93.90;;;;;;5053560;28;20033;-68
2022/10/08 01:44:57;;;;;;;7.35;1.90;;;15.90;94.00;;;;;;5053173;28;20033;-68
2022/10/08 01:47:26;;;;;;;2.35;1.52;;;15.90;94.10;;;;;;5053650;28;20052;-68
2022/10/08 01:49:57;;;;;;;4.70;1.25;;;15.90;94.00;;;;;;5053774;28;20029;-68
2022/10/08 01:52:27;;;;;;;1.80;0.70;;;15.90;94.00;;;;;;5052265;28;20029;-68
2022/10/08 01:54:58;;;;;;;3.35;1.38;;;15.80;93.90;;;;;;5053517;28;20040;-68
2022/10/08 01:57:26;;;;;;;5.15;1.70;;;15.90;93.90;;;;;;5053403;28;20111;-68
2022/10/08 02:00:07;;;;;;;2.13;0.70;;;15.90;93.90;;;;;;5052936;28;20025;-68
2022/10/08 02:02:37;;;;;;;0.75;0.75;;;15.90;93.90;;;;;;5053527;28;20029;-68
2022/10/08 02:05:04;;;;;;;4.00;1.38;;;15.80;93.80;;;;;;5053525;28;20051;-68
2022/10/08 02:07:34;;;;;;;2.78;1.23;;;15.80;93.80;;;;;;5052424;28;20106;-68
2022/10/08 02:10:08;;;;;;;1.85;0.75;;;15.80;93.90;;;;;;5053571;28;20036;-68
2022/10/08 02:12:35;;;;;;;1.60;1.33;;;15.80;93.80;;;;;;5052484;28;20514;-68
2022/10/08 02:15:03;;;;;;;2.60;1.15;;;15.80;93.70;;;;;;5053545;28;20027;-68
2022/10/08 02:17:52;;;;;;;4.35;1.73;;;15.70;93.80;;;;;;5053361;28;20112;-68
2022/10/08 02:20:34;;;;;;;2.92;1.33;;;15.70;93.70;;;;;;5052709;28;20068;-68
2022/10/08 02:23:10;;;;;;;4.18;1.08;;;15.70;93.70;;;;;;5053394;28;20395;-68
2022/10/08 02:25:45;;;;;;;5.10;1.50;;;15.70;93.60;;;;;;5053390;28;20021;-68
2022/10/08 02:28:43;;;;;;;3.45;1.13;;;15.70;93.70;;;;;;5052349;28;20043;-68
2022/10/08 02:31:12;;;;;;;3.40;1.25;;;15.60;93.70;;;;;;5053280;28;20444;-68
2022/10/08 02:33:49;;;;;;;3.05;1.52;;;15.60;93.60;;;;;;5052412;28;20059;-68
2022/10/08 02:36:21;;;;;;;6.60;1.38;;;15.60;93.60;;;;;;5053145;28;20035;-68
2022/10/08 02:38:51;;;;;;;7.03;1.60;;;15.60;93.70;;;;;;5053251;28;20369;-68
2022/10/08 02:41:20;;;;;;;0.60;0.52;;;15.50;93.70;;;;;;5052270;28;20391;-68
2022/10/08 02:43:48;;;;;;;6.75;1.20;;;15.50;93.60;;;;;;5052941;28;20040;-68
2022/10/08 02:46:16;;;;;;;2.78;1.00;;;15.50;93.60;;;;;;5052995;28;20029;-68
2022/10/08 02:48:56;;;;;;;1.20;0.90;;;15.50;93.70;;;;;;5052392;28;20046;-68
2022/10/08 02:51:23;;;;;;;7.38;1.90;;;15.40;93.70;;;;;;5053172;28;20033;-68
2022/10/08 02:53:49;;;;;;;5.90;1.40;;;15.40;93.70;;;;;;5053205;28;20060;-68
2022/10/08 02:56:42;;;;;;;1.48;1.00;;;15.30;93.70;;;;;;5052190;28;20045;-68
2022/10/08 02:59:09;;;;;;;2.67;0.68;;;15.30;93.70;;;;;;5053155;28;20120;-68
2022/10/08 03:01:43;;;;;;;5.53;1.02;;;15.30;93.60;;;;;;5052079;28;20112;-68
2022/10/08 03:04:16;;;;;;;;;;;15.30;93.70;;;;;;5053598;28;20044;-68
2022/10/08 03:06:43;;;;;;;1.45;0.85;;;15.20;93.60;;;;;;5056658;28;19912;-68
2022/10/08 03:09:12;;;;;;;4.15;1.00;;;15.20;93.60;;;;;;5055915;28;20045;-68
2022/10/08 03:11:39;;;;;;;2.95;0.70;;;15.20;93.70;;;;;;5057133;28;20177;-68
2022/10/08 03:14:08;;;;;;;1.55;1.33;;;15.10;94.00;;;;;;5056306;28;20044;-68
2022/10/08 03:16:53;;;;;;;1.92;0.77;;;15.10;93.90;;;;;;5055596;28;20039;-68
2022/10/08 03:19:19;;;;;;;3.38;0.77;;;15.10;93.90;;;;;;5056559;28;20116;-68
2022/10/08 03:21:48;;;;;;;2.97;1.20;;;15.00;93.90;;;;;;5056333;28;20079;-68
2022/10/08 03:24:14;;;;;;;3.65;1.15;;;15.00;93.90;;;;;;5055404;28;20383;-68
2022/10/08 03:26:40;;;;;;;12.27;1.42;;;15.00;94.20;;;;;;5056176;28;20025;-68
2022/10/08 03:29:06;;;;;;;3.80;1.45;;;15.00;93.90;;;;;;5056120;28;20476;-68
2022/10/08 03:31:32;;;;;;;4.10;0.93;;;15.00;94.00;;;;;;5055469;28;20071;-68
2022/10/08 03:33:58;;;;;;;1.55;0.95;;;15.00;93.90;;;;;;5056268;28;20037;-68
2022/10/08 03:36:24;;;;;;;5.00;1.48;;;15.00;93.90;;;;;;5055910;28;20029;-68
2022/10/08 03:38:51;;;;;;;6.90;1.45;;;14.90;93.90;;;;;;5055125;28;20044;-68
2022/10/08 03:41:17;;;;;;;0.80;0.45;;;15.00;93.90;;;;;;5056019;28;20036;-68
2022/10/08 03:43:44;;;;;;;2.38;1.13;;;14.90;93.90;;;;;;5055261;28;20093;-68
2022/10/08 03:46:11;;;;;;;1.83;0.98;;;14.90;93.90;;;;;;5055938;28;20067;-68
2022/10/08 03:48:37;;;;;;;6.05;1.70;;;14.90;93.90;;;;;;5055672;28;20033;-68
2022/10/08 03:51:06;;;;;;;2.35;1.00;;;14.90;93.90;;;;;;5055004;28;20484;-68
2022/10/08 03:53:37;;;;;;;10.85;1.75;;;14.80;93.80;;;;;;5055709;28;20121;-68
2022/10/08 03:56:10;;;;;;;4.20;1.45;;;14.80;93.90;;;;;;5055709;28;20501;-68
2022/10/08 03:58:36;;;;;;;3.30;0.77;;;14.90;93.80;;;;;;5055060;28;20035;-68
2022/10/08 04:01:04;;;;;;;3.20;1.38;;;14.80;93.70;;;;;;5055638;28;20029;-68
2022/10/08 04:03:31;;;;;;;5.15;1.08;;;14.80;93.70;;;;;;5055521;28;20033;-68
2022/10/08 04:05:57;;;;;;;2.05;0.80;;;14.80;93.70;;;;;;5054666;28;20431;-68
2022/10/08 04:08:23;;;;;;;1.45;0.88;;;14.80;93.70;;;;;;5055212;28;20135;-68
2022/10/08 04:10:49;;;;;;;6.90;1.15;;;14.80;93.80;;;;;;5055234;28;20025;-68
2022/10/08 04:13:15;;;;;;;4.78;1.38;;;14.70;93.90;;;;;;5054612;28;20033;-68
2022/10/08 04:15:42;;;;;;;2.40;0.80;;;14.70;93.90;;;;;;5054944;28;20025;-68
2022/10/08 04:18:11;;;;;;;5.90;1.40;;;14.70;93.90;;;;;;5055205;28;20033;-68
2022/10/08 04:20:38;;;;;;;3.75;1.00;;;14.60;93.90;;;;;;5054325;28;20055;-68
2022/10/08 04:23:05;;;;;;;2.47;1.02;;;14.60;93.90;;;;;;5055270;28;20037;-68
2022/10/08 04:25:31;;;;;;;4.95;1.38;;;14.60;93.90;;;;;;5055209;28;20025;-68
2022/10/08 04:27:56;;;;;;;9.23;1.73;;;14.60;93.90;;;;;;5054383;28;20388;-68
2022/10/08 04:30:23;;;;;;;2.53;0.88;;;14.60;93.80;;;;;;5055122;28;20361;-68
2022/10/08 04:32:48;;;;;;;7.93;1.05;;;14.60;93.80;;;;;;5055039;28;20116;-68
2022/10/08 04:35:14;;;;;;;4.75;0.68;;;14.60;93.90;;;;;;5054140;28;20063;-68
2022/10/08 04:37:39;;;;;;;1.00;0.80;;;14.60;93.80;;;;;;5054726;28;20044;-68
2022/10/08 04:40:06;;;;;;;3.72;1.17;;;14.50;93.80;;;;;;5054167;28;20082;-68
2022/10/08 04:42:31;;;;;;;6.47;1.40;;;14.60;93.80;;;;;;5054695;28;20490;-68
2022/10/08 04:44:57;;;;;;;1.88;0.93;;;14.50;93.80;;;;;;5054601;28;20033;-68
2022/10/08 04:47:22;;;;;;;6.57;1.90;;;14.50;93.80;;;;;;5053979;28;20073;-69
2022/10/08 04:49:48;;;;;;;8.32;1.70;;;14.50;93.80;;;;;;5054690;28;20542;-68
2022/10/08 04:52:16;;;;;;;10.60;1.52;;;14.50;93.80;;;;;;5054782;28;20070;-68
2022/10/08 04:54:41;;;;;;;7.97;1.48;;;14.50;93.80;;;;;;5053860;28;20032;-68
2022/10/08 04:57:07;;;;;;;3.63;1.13;;;14.40;93.70;;;;;;5054409;28;20053;-68
2022/10/08 04:59:32;;;;;;;9.32;1.42;;;14.50;93.70;;;;;;5054547;28;20037;-68
2022/10/08 05:01:58;;;;;;;6.07;1.90;;;14.40;93.70;;;;;;5053805;28;20029;-68
2022/10/08 05:04:24;;;;;;;11.60;2.10;;;14.40;93.70;;;;;;5054228;28;20376;-68
2022/10/08 05:06:49;;;;;;;4.43;1.30;;;14.40;93.70;;;;;;5054163;28;20037;-68
2022/10/08 05:09:15;;;;;;;4.72;1.42;;;14.40;93.70;;;;;;5053602;28;20029;-68
2022/10/08 05:11:41;;;;;;;2.58;1.27;;;14.40;93.70;;;;;;5054197;28;20025;-68
2022/10/08 05:14:07;;;;;;;8.32;1.73;;;14.40;93.70;;;;;;5054302;28;20044;-68
2022/10/08 05:16:32;;;;;;;7.97;1.58;;;14.30;93.70;;;;;;5053374;28;20028;-68
2022/10/08 05:18:58;;;;;;;1.50;0.93;;;14.30;93.70;;;;;;5054035;28;20120;-68
2022/10/08 05:21:27;;;;;;;6.63;1.90;;;14.30;93.60;;;;;;5054437;28;20033;-68
2022/10/08 05:23:54;;;;;;;7.85;1.83;;;14.30;93.60;;;;;;5053165;28;20472;-68
2022/10/08 05:26:25;;;;;;;2.50;1.13;;;14.30;93.60;;;;;;5054059;28;20105;-68
2022/10/08 05:28:56;;;;;;;5.70;1.35;;;14.30;93.50;;;;;;5053287;28;20083;-68
2022/10/08 05:31:23;;;;;;;4.78;1.83;;;14.20;93.50;;;;;;5053015;28;20036;-68
2022/10/08 05:33:49;;;;;;;6.85;1.15;;;14.20;93.50;;;;;;5053740;28;20482;-68
2022/10/08 05:36:19;;;;;;;11.50;1.65;;;14.20;93.50;;;;;;5052914;28;20389;-68
2022/10/08 05:38:45;;;;;;;0.90;0.80;;;14.10;93.50;;;;;;5053758;28;20403;-68
2022/10/08 05:41:12;;;;;;;6.43;0.80;;;14.10;93.50;;;;;;5053826;28;20025;-68
2022/10/08 05:43:38;;;;;;;2.63;1.05;;;14.10;93.60;;;;;;5052940;28;20551;-68
2022/10/08 05:46:04;;;;;;;1.88;0.90;;;14.10;93.60;;;;;;5053645;28;20025;-68
2022/10/08 05:48:29;;;;;;;12.00;1.60;;;14.00;93.50;;;;;;5053702;28;20033;-68
2022/10/08 05:50:55;;;;;;;6.53;2.15;;;14.10;93.60;;;;;;5052894;28;20032;-68
2022/10/08 05:53:20;;;;;;;5.22;1.15;;;14.00;93.60;;;;;;5053471;28;20480;-68
2022/10/08 05:55:46;;;;;;;5.10;1.27;;;14.00;93.60;;;;;;5054406;28;20353;-68
2022/10/08 05:58:12;;;;;;;0.73;0.68;;;14.00;93.60;;;;;;5053444;28;20104;-68
2022/10/08 06:00:38;;;;;;;10.32;1.58;;;14.00;93.50;;;;;;5053568;28;20032;-68
2022/10/08 06:03:03;;;;;;;5.78;1.88;;;13.90;93.50;;;;;;5053570;28;20021;-68
2022/10/08 06:05:29;;;;;;;6.32;1.50;;;14.00;93.50;;;;;;5053359;28;20053;-68
2022/10/08 06:07:56;;;;;;;4.13;1.15;;;13.90;93.50;;;;;;5053426;28;20036;-68
2022/10/08 06:10:23;;;;;;;8.40;1.67;;;13.90;93.40;;;;;;5053496;28;20033;-68
2022/10/08 06:12:49;;;;;;;5.47;1.08;;;13.90;93.40;;;;;;5052590;28;20510;-68
2022/10/08 06:15:14;;;;;;;5.18;2.03;;;13.90;93.40;;;;;;5053479;28;20025;-68
2022/10/08 06:17:40;;;;;;;8.20;2.10;;;13.90;93.40;;;;;;5053208;28;20040;-68
2022/10/08 06:20:06;;;;;;;3.67;1.48;;;13.90;93.40;;;;;;5053217;28;20040;-68
2022/10/08 06:22:32;;;;;;;16.05;1.73;;;13.90;93.40;;;;;;5053384;28;20068;-68
2022/10/08 06:24:57;;;;;;;6.45;1.70;;;13.90;93.50;;;;;;5053352;28;20102;-68
2022/10/08 06:27:23;;;;;;;2.90;1.45;;;13.80;93.70;;;;;;5052773;28;20379;-68
2022/10/08 06:29:48;;;;;;;3.22;0.77;;;13.80;93.50;;;;;;5053336;28;20468;-68
2022/10/08 06:32:14;;;;;;;6.47;1.27;;;13.80;93.50;;;;;;5053455;28;20032;-68
2022/10/08 06:34:40;;;;;;;5.07;1.40;;;13.80;93.60;;;;;;5052740;28;20360;-68
2022/10/08 06:37:06;;;;;;;2.10;0.82;;;13.70;93.60;;;;;;5053547;28;20032;-68
2022/10/08 06:39:32;;;;;;;14.82;2.33;;;13.70;93.70;;;;;;5054488;28;20171;-68
2022/10/08 06:41:57;;;;;;;1.52;0.65;;;13.70;93.70;;;;;;5057213;28;20460;-68
2022/10/08 06:44:30;;;;;;;0.55;0.55;;;13.70;93.70;;;;;;5056368;28;20029;-68
2022/10/08 06:46:56;;;;;;;18.40;1.20;;;13.70;93.80;;;;;;5056390;28;20051;-68
2022/10/08 06:49:25;;;;;;;6.25;0.93;;;13.70;94.00;;;;;;5056982;28;20064;-68
2022/10/08 06:51:51;;;;;;;9.70;1.67;;;13.60;94.10;;;;;;5057010;28;20069;-68
2022/10/08 06:54:16;;;;;;;7.22;1.13;;;13.60;94.20;;;;;;5056124;28;20056;-68
2022/10/08 06:56:42;;;;;;;6.55;1.38;;;13.60;94.40;;;;;;5056587;28;20130;-68
2022/10/08 06:59:07;;;;;;;2.55;1.05;;;13.60;94.60;;;;;;5056880;28;20033;-68
2022/10/08 07:01:33;;;;;;;8.00;1.58;;;13.50;94.80;;;;;;5056088;28;20044;-68
2022/10/08 07:04:00;;;;;;;4.82;1.50;;;13.50;95.00;;;;;;5056911;28;20051;-68
2022/10/08 07:06:26;;;;;;;2.90;1.08;;;13.50;95.30;;;;;;5056532;28;20472;-68
2022/10/08 07:08:56;;;;;;;7.50;1.65;;;13.50;95.50;;;;;;5055669;28;20052;-68
2022/10/08 07:11:22;;;;;;;4.00;0.90;;;13.50;95.70;;;;;;5056551;28;20044;-68
2022/10/08 07:13:48;;;;;;;1.95;1.05;;;13.50;95.80;;;;;;5056440;28;20459;-68
2022/10/08 07:16:19;;;;;;;3.75;1.10;;;13.50;95.80;;;;;;5055816;28;20017;-68
2022/10/08 07:18:46;;;;;;;4.85;1.83;;;13.50;95.90;;;;;;5056524;28;20036;-68
2022/10/08 07:21:14;;;;;;;2.83;1.10;;;13.50;95.90;;;;;;5056200;28;20033;-68
2022/10/08 07:23:39;;;;;;;5.53;1.08;;;13.50;95.90;;;;;;5055621;28;20044;-68
2022/10/08 07:26:11;;;;;;;1.92;0.88;;;13.50;95.90;;;;;;5056120;28;20025;-68
2022/10/08 07:28:39;;;;;;;7.95;1.58;;;13.50;96.00;;;;;;5056349;28;20041;-68
2022/10/08 07:31:07;;;;;;;8.07;1.40;;;13.50;96.00;;;;;;5055552;28;20037;-68
2022/10/08 07:33:33;;;;;;;0.35;0.35;;;13.50;96.00;;;;;;5056168;28;20029;-68
2022/10/08 07:36:12;;;;;;;4.00;1.27;;;13.50;96.10;;;;;;5055326;28;20032;-68
2022/10/08 07:38:39;;;;;;;1.85;0.50;;;13.60;96.10;;;;;;5056151;28;20037;-68
2022/10/08 07:41:05;;;;;;;9.00;1.65;;;13.60;96.20;;;;;;5055817;28;20473;-68
2022/10/08 07:43:31;;;;;;;2.70;0.98;;;13.60;96.20;;;;;;5055198;28;20033;-68
2022/10/08 07:45:57;;;;;;;6.38;1.40;;;13.60;96.20;;;;;;5055953;28;20025;-68
2022/10/08 07:48:23;;;;;;;6.28;0.63;;;13.70;96.20;;;;;;5055689;28;20086;-68
2022/10/08 07:50:48;;;;;;;3.15;0.73;;;13.60;96.10;;;;;;5054220;28;20423;-68
2022/10/08 07:53:15;;;;;;;0.88;0.55;;;13.70;96.10;;;;;;5055694;28;20033;-68
2022/10/08 07:55:41;;;;;;;10.10;1.60;;;13.70;96.00;;;;;;5055223;28;20540;-68
2022/10/08 07:58:06;;;;;;;5.10;1.30;;;13.70;95.90;;;;;;5055013;28;20120;-68
2022/10/08 08:00:32;;;;;;;3.25;1.15;;;13.80;95.80;;;;;;5055829;28;20495;-68
2022/10/08 08:02:58;;;;;;;6.13;1.77;;;13.80;95.70;;;;;;5055438;28;20025;-68
2022/10/08 08:05:23;;;;;;;5.80;1.30;;;14.00;95.80;;;;;;5054701;28;20036;-68
2022/10/08 08:07:49;;;;;;;4.53;1.00;;;14.00;95.70;;;;;;5055337;28;20377;-68
2022/10/08 08:10:15;;;;;;;7.75;1.10;;;14.10;95.30;;;;;;5055567;28;20495;-68
2022/10/08 08:12:40;;;;;;;2.53;1.20;;;14.20;95.20;;;;;;5054573;28;20037;-68
2022/10/08 08:15:06;;;;;;;1.35;0.88;;;14.20;95.00;;;;;;5055429;28;20040;-68
2022/10/08 08:17:34;;;;;;;7.70;1.40;;;14.20;95.00;;;;;;5055402;28;20028;-68
2022/10/08 08:19:59;;;;;;;7.63;1.45;;;14.30;95.10;;;;;;5054350;28;20036;-68
2022/10/08 08:22:25;;;;;;;7.97;1.33;;;14.30;95.20;;;;;;5055131;28;20086;-68
2022/10/08 08:24:51;;;;;;;6.47;0.82;;;14.30;95.20;;;;;;5055343;28;20029;-68
2022/10/08 08:27:20;;;;;;;3.90;1.20;;;14.40;95.00;;;;;;5054360;28;20025;-68
2022/10/08 08:29:45;;;;;;;0.63;0.63;;;14.40;94.90;;;;;;5055172;28;20029;-68
2022/10/08 08:32:11;;;;;;;1.02;0.28;;;14.40;94.70;;;;;;5054473;28;20452;-68
2022/10/08 08:34:37;;;;;;;5.93;0.68;;;14.50;94.70;;;;;;5055155;28;20025;-68
2022/10/08 08:37:03;;;;;;;1.33;0.60;;;14.50;94.90;;;;;;5055087;28;20090;-68
2022/10/08 08:39:30;;;;;;;3.47;0.95;;;14.50;95.00;;;;;;5054258;28;20037;-68
2022/10/08 08:42:01;;;;;;;1.35;0.63;;;14.50;95.10;;;;;;5054931;28;20029;-68
2022/10/08 08:44:56;;;;;;;0.95;0.75;;;14.50;95.20;;;;;;5054912;28;20044;-68
2022/10/08 08:47:35;;;;;;;0.98;0.55;;;14.40;95.10;;;;;;5051698;28;20045;-69
2022/10/08 08:50:24;;;;;;;1.85;0.45;;;14.30;95.40;;;;;;5054805;28;20029;-69
2022/10/08 08:52:50;;;;;;;3.38;0.50;;;14.30;95.10;;;;;;5054734;28;20040;-68
2022/10/08 08:55:20;;;;;;;0.52;0.40;;;14.20;95.00;;;;;;5054011;28;20093;-69
2022/10/08 08:58:23;;;;;;;3.25;0.55;;;14.20;95.10;;;;;;5054218;28;20060;-69
2022/10/08 09:01:16;;;;;;;0.50;0.43;;;14.20;95.10;;;;;;5053723;28;20033;-68
2022/10/08 09:03:48;;;;;;;0.60;0.47;;;14.20;95.00;;;;;;5051978;28;20052;-68
2022/10/08 09:06:17;;;;;;;0.45;0.25;;;14.20;95.10;;;;;;5054257;28;20052;-68
2022/10/08 09:08:54;;;;;;;3.28;0.90;;;14.30;95.30;;;;;;5053386;28;20045;-68
2022/10/08 09:11:21;;;;;;;3.85;1.00;;;14.30;95.40;;;;;;5054389;28;20054;-68
2022/10/08 09:13:51;;;;;;;0.43;0.43;;;14.30;95.50;;;;;;5054370;28;20078;-68
2022/10/08 09:16:17;;;;;;;3.33;0.40;;;14.30;95.60;;;;;;5053298;28;20551;-68
2022/10/08 09:18:48;;;;;;;0.80;0.52;;;14.30;95.70;;;;;;5054011;28;20179;-66
2022/10/08 09:21:15;;;;;;;0.73;0.65;;;14.30;95.70;;;;;;5053364;28;20492;-66
2022/10/08 09:23:40;;;;;;;2.25;0.73;;;14.30;95.80;;;;;;5054225;28;20032;-66
2022/10/08 09:26:28;;;;;;;3.28;1.00;;;14.30;95.90;;;;;;5053993;28;20029;-66
2022/10/08 09:28:59;;;;;;;1.23;0.43;;;14.30;95.90;;;;;;5052958;28;20045;-72
2022/10/08 09:31:27;;;;;;;4.18;1.50;;;14.40;96.00;;;;;;5054049;28;20032;-68
2022/10/08 09:34:04;;;;;;;6.07;0.77;;;14.50;96.10;;;;;;5053961;28;20034;-68
2022/10/08 09:36:42;;;;;;;6.65;0.85;;;14.50;96.10;;;;;;5053130;28;20029;-73
2022/10/08 09:39:17;;;;;;;3.22;0.75;;;14.50;96.10;;;;;;5053858;28;20036;-73
2022/10/08 09:42:02;;;;;;;2.33;0.82;;;14.50;96.10;;;;;;5053851;28;20033;-73
2022/10/08 09:44:40;;;;;;;8.27;1.40;;;14.50;96.20;;;;;;5053064;28;20176;-74
2022/10/08 09:47:10;;;;;;;8.68;1.50;;;14.60;96.50;;;;;;5053719;28;20048;-75
2022/10/08 09:49:37;;;;;;;4.25;0.90;;;14.60;96.30;;;;;;5053025;28;20033;-70
2022/10/08 09:52:18;;;;;;;5.63;1.17;;;14.70;96.20;;;;;;5053670;28;20504;-68
2022/10/08 09:54:52;;;;;;;2.03;0.82;;;14.70;96.10;;;;;;5053652;28;20091;-68
2022/10/08 09:57:20;;;;;;;7.78;0.95;;;14.70;96.00;;;;;;5052520;28;20056;-68
2022/10/08 09:59:59;;;;;;;8.00;1.80;;;14.80;95.90;;;;;;5053578;28;20043;-68
2022/10/08 10:02:35;;;;;;;3.22;1.20;;;14.80;95.80;;;;;;5053568;28;20056;-68
2022/10/08 10:05:05;;;;;;;2.05;0.90;;;14.80;95.80;;;;;;5052923;28;20036;-68
2022/10/08 10:07:44;;;;;;;6.47;1.33;;;14.80;95.70;;;;;;5053374;28;20099;-68
2022/10/08 10:10:27;;;;;;;7.97;2.28;;;14.90;95.60;;;;;;5053497;28;20033;-68
2022/10/08 10:13:03;;;;;;;6.32;1.05;;;14.90;95.50;;;;;;5053291;28;20033;-68
2022/10/08 10:15:47;;;;;;;3.25;0.80;;;15.00;95.60;;;;;;5059821;28;20072;-68
2022/10/08 10:18:18;;;;;;;2.45;0.98;;;15.10;95.70;;;;;;5059317;28;20033;-68
2022/10/08 10:20:57;;;;;;;7.75;1.50;;;15.00;95.60;;;;;;5060004;28;20029;-68
2022/10/08 10:23:31;;;;;;;3.58;0.95;;;15.10;95.30;;;;;;5059814;28;20530;-68
2022/10/08 10:25:57;;;;;;;10.48;2.30;;;15.20;95.30;;;;;;5059246;28;20025;-68
2022/10/08 10:28:46;;;;;;;1.98;0.77;;;15.20;94.90;;;;;;5059800;28;20495;-68
2022/10/08 10:31:18;;;;;;;4.30;0.85;;;15.30;95.00;;;;;;5059873;28;20029;-68
2022/10/08 10:33:58;;;;;;;9.10;1.63;;;15.30;94.90;;;;;;5059171;28;20383;-68
2022/10/08 10:36:29;;;;;;;12.63;1.48;;;15.30;94.70;;;;;;5060021;28;20391;-68
2022/10/08 10:39:17;;;;;;;6.95;1.55;;;15.30;94.70;;;;;;5059204;28;20419;-68
2022/10/08 10:42:08;;;;;;;9.38;1.45;;;15.40;94.50;;;;;;5059818;28;20142;-68
2022/10/08 10:44:59;;;;;;;3.50;0.63;;;15.40;94.00;;;;;;5059678;28;20051;-68
2022/10/08 10:47:29;;;;;;;4.97;1.27;;;15.50;94.40;;;;;;5058839;28;20132;-68
2022/10/08 10:49:57;;;;;;;10.02;1.38;;;15.50;94.30;;;;;;5059751;28;20037;-68
2022/10/08 10:52:51;;;;;;;3.65;0.68;;;15.50;94.10;;;;;;5059525;28;20472;-68
2022/10/08 10:55:39;;;;;;;14.27;2.30;;;15.50;94.30;;;;;;5059580;28;20484;-68
2022/10/08 10:58:13;;;;;;;10.23;1.75;;;15.60;94.00;;;;;;5059510;28;20060;-68
2022/10/08 11:00:54;;;;;;;1.75;0.90;;;15.60;94.00;;;;;;5058764;28;20029;-68
2022/10/08 11:04:09;;;;;;;9.98;1.45;;;15.70;94.10;;;;;;5059665;28;20143;-68
2022/10/08 11:06:51;;;;;;;3.70;1.08;;;15.70;93.70;;;;;;5039951;28;20029;-68
2022/10/08 11:09:41;;;;;;;12.23;1.30;;;15.70;93.90;;;;;;5059672;28;20032;-68
2022/10/08 11:12:26;;;;;;;8.30;1.02;;;15.80;93.70;;;;;;5059411;28;20465;-68
2022/10/08 11:15:04;;;;;;;9.35;1.60;;;15.80;93.70;;;;;;5058829;28;20037;-68
2022/10/08 11:17:56;;;;;;;3.30;1.42;;;15.80;93.50;;;;;;5059587;28;20051;-68
2022/10/08 11:20:46;;;;;;;1.42;0.45;;;15.80;93.70;;;;;;5059638;28;20033;-68
2022/10/08 11:23:24;;;;;;;6.20;1.38;;;15.70;93.50;;;;;;5059039;28;20081;-68
2022/10/08 11:25:57;;;;;;;2.13;1.10;;;15.70;93.50;;;;;;5056266;28;20037;-68
2022/10/08 11:28:44;;;;;;;7.00;1.05;;;15.70;93.40;;;;;;5055570;28;20045;-68
2022/10/08 11:31:39;;;;;;;0.88;0.43;;;15.60;93.50;;;;;;5056174;28;20040;-68
2022/10/08 11:34:22;;;;;;;1.98;0.43;;;15.60;93.70;;;;;;5056126;28;20033;-69
2022/10/08 11:37:03;;;;;;;2.80;0.95;;;15.60;93.90;;;;;;5055329;28;20043;-68
2022/10/08 11:39:45;;;;;;;8.05;0.73;;;15.50;94.00;;;;;;5056423;28;20083;-68
2022/10/08 11:42:30;;;;;;;11.52;1.15;;;15.60;94.10;;;;;;5055219;28;20033;-68
2022/10/08 11:45:27;;;;;;;3.95;0.80;;;15.60;94.10;;;;;;5056166;28;20040;-68
2022/10/08 11:47:59;;;;;;;9.25;1.35;;;15.70;94.20;;;;;;5055996;28;20041;-68
2022/10/08 11:50:30;;;;;;;3.63;0.90;;;15.70;94.20;;;;;;5055037;28;20028;-68
2022/10/08 11:53:08;;;;;;;1.83;0.57;;;15.80;94.30;;;;;;5055626;28;20483;-68
2022/10/08 11:55:36;;;;;;;2.40;0.70;;;15.90;94.30;;;;;;5055864;28;20040;-68
2022/10/08 11:58:05;;;;;;;9.45;1.48;;;15.90;94.30;;;;;;5054712;28;20040;-68
2022/10/08 12:00:37;;;;;;;9.27;1.92;;;16.00;94.30;;;;;;5055724;28;20120;-68
2022/10/08 12:03:17;;;;;;;4.65;1.20;;;16.00;93.70;;;;;;5054931;28;20037;-68
2022/10/08 12:05:45;;;;;;;8.00;1.75;;;16.20;94.00;;;;;;5055687;28;20108;-68
2022/10/08 12:08:51;;;;;;;1.80;0.55;;;16.20;93.50;;;;;;5055421;28;20545;-68
2022/10/08 12:11:32;;;;;;;4.25;0.93;;;16.30;94.00;;;;;;5054564;28;20032;-68
2022/10/08 12:14:10;;;;;;;10.05;1.35;;;16.40;94.10;;;;;;5055514;28;20043;-69
2022/10/08 12:16:47;;;;;;;6.70;1.40;;;16.40;94.30;;;;;;5055518;28;20376;-68
2022/10/08 12:19:31;;;;;;;7.40;1.77;;;16.50;94.20;;;;;;5054558;28;20111;-69
2022/10/08 12:22:24;;;;;;;8.88;2.00;;;16.60;94.00;;;;;;5054928;28;20033;-69
2022/10/08 12:24:57;;;;;;;6.95;1.27;;;16.60;93.70;;;;;;5054164;28;20472;-67
2022/10/08 12:27:25;;;;;;;7.38;1.58;;;16.70;93.90;;;;;;5055165;28;20032;-71
2022/10/08 12:30:09;;;;;;;6.85;1.58;;;16.80;93.60;;;;;;5055008;28;20037;-68
2022/10/08 12:32:41;;;;;;;8.25;1.63;;;16.90;93.50;;;;;;5054351;28;20052;-68
2022/10/08 12:35:25;;;;;;;11.43;1.92;;;17.00;93.30;;;;;;5054889;28;20029;-68
2022/10/08 12:37:56;;;;;;;8.80;1.60;;;17.00;93.00;;;;;;5054649;28;20036;-69
2022/10/08 12:40:52;;;;;;;7.00;1.40;;;17.10;92.50;;;;;;5054014;28;20039;-68
2022/10/08 12:44:05;;;;;;;8.20;1.50;;;17.10;93.30;;;;;;5054743;28;20468;-68
2022/10/08 12:47:08;;;;;;;5.45;1.35;;;17.10;93.30;;;;;;5031775;28;20025;-72
2022/10/08 12:49:45;;;;;;;5.30;0.98;;;17.20;93.40;;;;;;5032539;28;20087;-73
2022/10/08 12:52:19;;;;;;;4.10;1.50;;;17.20;93.50;;;;;;5051566;28;20480;-73
2022/10/08 12:54:51;;;;;;;7.65;1.30;;;17.20;93.40;;;;;;5054637;28;20544;-69
2022/10/08 12:57:22;;;;;;;7.90;1.23;;;17.20;93.00;;;;;;5054293;28;20084;-70
2022/10/08 12:59:49;;;;;;;2.97;1.33;;;17.20;92.80;;;;;;5053988;28;20021;-69
2022/10/08 13:02:38;;;;;;;0.40;0.40;;;17.30;93.00;;;;;;5054570;28;20040;-70
2022/10/08 13:05:05;;;;;;;1.00;0.45;;;17.40;93.80;;;;;;5054410;28;20028;-70
2022/10/08 13:07:34;;;;;;;2.47;0.70;;;17.40;93.90;;;;;;5053266;28;20492;-70
2022/10/08 13:10:14;;;;;;;6.00;1.42;;;17.50;94.10;;;;;;5054257;28;20036;-70